createdAt,value
2019-05-12T00:00:07.953Z,9.97
2019-05-12T00:01:08.615Z,9.98
2019-05-12T00:02:07.698Z,9.98
2019-05-12T00:03:08.469Z,10.01
2019-05-12T00:04:08.236Z,9.98
2019-05-12T00:05:08.558Z,9.82
2019-05-12T00:06:08.626Z,9.94
2019-05-12T00:07:08.567Z,10.01
2019-05-12T00:08:08.282Z,9.84
2019-05-12T00:09:08.355Z,9.94
2019-05-12T00:10:08.417Z,9.98
2019-05-12T00:11:08.797Z,9.95
2019-05-12T00:12:08.230Z,9.98
2019-05-12T00:13:08.389Z,9.98
2019-05-12T00:14:08.466Z,9.92
2019-05-12T00:15:08.247Z,9.98
2019-05-12T00:16:08.602Z,9.97
2019-05-12T00:17:08.195Z,9.98
2019-05-12T00:18:08.844Z,9.98
2019-05-12T00:19:06.267Z,9.97
2019-05-12T00:20:08.329Z,10.05
2019-05-12T00:21:08.655Z,9.97
2019-05-12T00:22:07.678Z,10.02
2019-05-12T00:23:22.391Z,9.99
2019-05-12T00:24:08.026Z,9.95
2019-05-12T00:25:08.629Z,10.04
2019-05-12T00:26:07.937Z,9.97
2019-05-12T00:27:08.427Z,9.94
2019-05-12T00:28:07.835Z,9.97
2019-05-12T00:29:07.694Z,10.12
2019-05-12T00:30:09.651Z,9.92
2019-05-12T00:31:08.265Z,9.95
2019-05-12T00:32:08.458Z,10.09
2019-05-12T00:33:08.945Z,10.02
2019-05-12T00:34:07.751Z,10.10
2019-05-12T00:35:07.799Z,10.05
2019-05-12T00:36:08.031Z,10.10
2019-05-12T00:37:08.194Z,10.09
2019-05-12T00:38:08.655Z,10.13
2019-05-12T00:39:07.969Z,10.05
2019-05-12T00:40:08.211Z,10.02
2019-05-12T00:41:06.094Z,10.01
2019-05-12T00:42:07.826Z,10.01
2019-05-12T00:43:08.465Z,10.05
2019-05-12T00:44:08.198Z,9.99
2019-05-12T00:45:08.150Z,9.99
2019-05-12T00:46:07.955Z,9.94
2019-05-12T00:47:08.043Z,9.99
2019-05-12T00:48:08.731Z,9.97
2019-05-12T00:49:08.071Z,9.89
2019-05-12T00:50:08.042Z,9.97
2019-05-12T00:51:07.735Z,9.82
2019-05-12T00:52:08.014Z,9.95
2019-05-12T00:53:08.619Z,9.84
2019-05-12T00:54:05.992Z,9.86
2019-05-12T00:55:07.982Z,9.83
2019-05-12T00:56:08.314Z,9.73
2019-05-12T00:57:07.759Z,9.77
2019-05-12T00:58:08.183Z,9.73
2019-05-12T00:59:08.129Z,9.62
2019-05-12T01:00:05.946Z,9.76
2019-05-12T01:01:08.162Z,9.69
2019-05-12T01:02:07.922Z,9.66
2019-05-12T01:03:08.413Z,9.68
2019-05-12T01:04:08.521Z,9.56
2019-05-12T01:05:08.388Z,9.61
2019-05-12T01:06:08.242Z,9.56
2019-05-12T01:07:05.892Z,9.58
2019-05-12T01:08:08.489Z,9.64
2019-05-12T01:09:08.551Z,9.64
2019-05-12T01:10:05.867Z,9.76
2019-05-12T01:11:05.858Z,9.72
2019-05-12T01:12:07.814Z,9.72
2019-05-12T01:13:08.268Z,9.74
2019-05-12T01:14:05.838Z,9.76
2019-05-12T01:15:07.481Z,9.64
2019-05-12T01:16:07.969Z,9.61
2019-05-12T01:17:05.809Z,9.69
2019-05-12T01:18:05.802Z,9.73
2019-05-12T01:19:07.938Z,9.68
2019-05-12T01:20:05.786Z,9.69
2019-05-12T01:21:07.744Z,9.72
2019-05-12T01:22:07.626Z,9.77
2019-05-12T01:23:08.219Z,9.80
2019-05-12T01:24:08.319Z,9.82
2019-05-12T01:25:08.360Z,9.86
2019-05-12T01:26:05.740Z,9.92
2019-05-12T01:27:05.731Z,9.97
2019-05-12T01:28:07.946Z,9.98
2019-05-12T01:29:05.715Z,9.99
2019-05-12T01:30:05.709Z,9.98
2019-05-12T01:31:05.698Z,9.99
2019-05-12T01:32:07.937Z,9.98
2019-05-12T01:33:08.263Z,9.99
2019-05-12T01:34:07.938Z,10.01
2019-05-12T01:35:07.958Z,9.92
2019-05-12T01:36:07.822Z,9.95
2019-05-12T01:37:07.878Z,9.97
2019-05-12T01:38:07.752Z,9.82
2019-05-12T01:39:07.744Z,9.82
2019-05-12T01:40:05.631Z,9.82
2019-05-12T01:41:05.632Z,9.77
2019-05-12T01:42:05.614Z,9.79
2019-05-12T01:43:08.229Z,9.80
2019-05-12T01:44:05.599Z,9.74
2019-05-12T01:45:05.595Z,9.72
2019-05-12T01:46:07.887Z,9.72
2019-05-12T01:47:08.232Z,9.74
2019-05-12T01:48:08.314Z,9.74
2019-05-12T01:49:07.980Z,9.73
2019-05-12T01:50:05.554Z,9.66
2019-05-12T01:51:05.544Z,9.69
2019-05-12T01:52:05.541Z,9.79
2019-05-12T01:53:07.923Z,9.74
2019-05-12T01:54:11.700Z,9.68
2019-05-12T01:55:05.515Z,9.76
2019-05-12T01:56:07.712Z,9.82
2019-05-12T01:57:05.503Z,9.80
2019-05-12T01:58:05.498Z,9.86
2019-05-12T01:59:05.482Z,9.77
2019-05-12T02:00:07.929Z,9.84
2019-05-12T02:01:05.464Z,9.83
2019-05-12T02:02:05.460Z,9.91
2019-05-12T02:03:05.462Z,9.92
2019-05-12T02:04:07.631Z,9.82
2019-05-12T02:05:08.241Z,9.83
2019-05-12T02:06:05.427Z,9.83
2019-05-12T02:07:05.427Z,9.80
2019-05-12T02:08:05.410Z,9.79
2019-05-12T02:09:05.407Z,9.86
2019-05-12T02:10:05.400Z,9.79
2019-05-12T02:11:07.849Z,9.83
2019-05-12T02:12:05.390Z,9.82
2019-05-12T02:13:07.733Z,9.83
2019-05-12T02:14:05.371Z,9.84
2019-05-12T02:15:07.993Z,9.89
2019-05-12T02:16:05.352Z,9.92
2019-05-12T02:17:05.353Z,9.89
2019-05-12T02:18:05.351Z,9.86
2019-05-12T02:19:05.330Z,9.87
2019-05-12T02:20:07.615Z,9.89
2019-05-12T02:21:05.317Z,9.87
2019-05-12T02:22:05.305Z,9.89
2019-05-12T02:23:05.299Z,9.82
2019-05-12T02:24:07.599Z,9.86
2019-05-12T02:25:07.936Z,9.84
2019-05-12T02:26:05.279Z,9.77
2019-05-12T02:27:05.266Z,9.82
2019-05-12T02:28:05.267Z,9.80
2019-05-12T02:29:07.700Z,9.83
2019-05-12T02:30:09.289Z,9.77
2019-05-12T02:31:05.235Z,9.68
2019-05-12T02:32:05.230Z,9.69
2019-05-12T02:33:05.433Z,9.68
2019-05-12T02:34:05.774Z,9.66
2019-05-12T02:35:05.877Z,9.73
2019-05-12T02:36:05.202Z,9.69
2019-05-12T02:37:05.578Z,9.65
2019-05-12T02:38:05.503Z,9.72
2019-05-12T02:39:05.421Z,9.65
2019-05-12T02:40:05.235Z,9.73
2019-05-12T02:41:05.160Z,9.69
2019-05-12T02:42:05.329Z,9.66
2019-05-12T02:43:05.843Z,9.73
2019-05-12T02:44:05.522Z,9.69
2019-05-12T02:45:05.695Z,9.68
2019-05-12T02:46:05.134Z,9.59
2019-05-12T02:47:05.356Z,9.68
2019-05-12T02:48:05.645Z,9.72
2019-05-12T02:49:05.335Z,9.74
2019-05-12T02:50:05.397Z,9.69
2019-05-12T02:51:05.641Z,9.69
2019-05-12T02:52:05.245Z,9.69
2019-05-12T02:53:05.510Z,9.69
2019-05-12T02:54:05.523Z,9.73
2019-05-12T02:55:06.398Z,9.68
2019-05-12T02:56:05.309Z,9.77
2019-05-12T02:57:05.038Z,9.76
2019-05-12T02:58:05.921Z,9.73
2019-05-12T02:59:05.547Z,9.72
2019-05-12T03:00:05.351Z,9.66
2019-05-12T03:01:05.617Z,9.82
2019-05-12T03:02:05.412Z,9.84
2019-05-12T03:03:05.544Z,9.82
2019-05-12T03:04:05.831Z,9.66
2019-05-12T03:05:05.701Z,9.83
2019-05-12T03:06:05.661Z,9.73
2019-05-12T03:07:06.504Z,9.77
2019-05-12T03:08:05.255Z,9.76
2019-05-12T03:09:05.056Z,9.82
2019-05-12T03:10:05.269Z,9.69
2019-05-12T03:11:06.063Z,9.73
2019-05-12T03:12:05.867Z,9.80
2019-05-12T03:13:05.051Z,9.68
2019-05-12T03:14:04.915Z,9.74
2019-05-12T03:15:05.626Z,9.72
2019-05-12T03:16:05.264Z,9.62
2019-05-12T03:17:04.900Z,9.76
2019-05-12T03:18:40.784Z,9.76
2019-05-12T03:19:05.402Z,9.72
2019-05-12T03:20:05.171Z,9.69
2019-05-12T03:21:05.792Z,9.76
2019-05-12T03:22:05.257Z,9.86
2019-05-12T03:23:06.365Z,9.80
2019-05-12T03:24:06.049Z,9.83
2019-05-12T03:25:15.341Z,9.80
2019-05-12T03:26:05.337Z,9.82
2019-05-12T03:27:04.814Z,9.77
2019-05-12T03:28:08.142Z,9.74
2019-05-12T03:29:05.999Z,9.76
2019-05-12T03:30:09.820Z,9.66
2019-05-12T03:31:07.794Z,9.62
2019-05-12T03:32:08.217Z,9.64
2019-05-12T03:33:09.329Z,9.59
2019-05-12T03:34:09.214Z,9.56
2019-05-12T03:35:08.666Z,9.65
2019-05-12T03:36:08.893Z,9.72
2019-05-12T03:37:07.817Z,9.72
2019-05-12T03:38:04.736Z,9.69
2019-05-12T03:39:04.717Z,9.66
2019-05-12T03:40:05.594Z,9.69
2019-05-12T03:41:05.481Z,9.73
2019-05-12T03:42:05.290Z,9.69
2019-05-12T03:43:05.608Z,9.76
2019-05-12T03:44:05.260Z,9.82
2019-05-12T03:45:04.940Z,9.72
2019-05-12T03:46:05.434Z,9.69
2019-05-12T03:47:05.185Z,9.69
2019-05-12T03:48:04.650Z,9.72
2019-05-12T03:49:05.504Z,9.69
2019-05-12T03:50:04.903Z,9.80
2019-05-12T03:51:05.737Z,9.72
2019-05-12T03:52:05.203Z,9.77
2019-05-12T03:53:10.104Z,9.68
2019-05-12T03:54:05.214Z,9.65
2019-05-12T03:55:05.603Z,9.73
2019-05-12T03:56:04.698Z,9.73
2019-05-12T03:57:04.707Z,9.68
2019-05-12T03:58:04.760Z,9.77
2019-05-12T03:59:05.097Z,9.74
2019-05-12T04:00:05.318Z,9.69
2019-05-12T04:01:04.894Z,9.83
2019-05-12T04:02:04.957Z,9.84
2019-05-12T04:03:05.030Z,9.82
2019-05-12T04:04:05.262Z,9.82
2019-05-12T04:05:05.411Z,9.86
2019-05-12T04:06:04.964Z,9.84
2019-05-12T04:07:05.319Z,9.94
2019-05-12T04:08:05.651Z,9.83
2019-05-12T04:09:04.801Z,9.89
2019-05-12T04:10:05.406Z,9.86
2019-05-12T04:11:05.495Z,9.89
2019-05-12T04:12:05.356Z,9.86
2019-05-12T04:13:04.861Z,9.82
2019-05-12T04:14:05.529Z,9.94
2019-05-12T04:15:05.369Z,9.87
2019-05-12T04:16:04.983Z,9.92
2019-05-12T04:17:04.944Z,9.92
2019-05-12T04:18:05.870Z,9.99
2019-05-12T04:19:05.492Z,9.92
2019-05-12T04:20:04.993Z,9.99
2019-05-12T04:21:05.524Z,9.91
2019-05-12T04:22:05.518Z,9.95
2019-05-12T04:23:06.026Z,9.89
2019-05-12T04:24:05.738Z,9.95
2019-05-12T04:25:06.072Z,9.97
2019-05-12T04:26:10.961Z,10.05
2019-05-12T04:27:05.391Z,10.02
2019-05-12T04:28:04.941Z,10.13
2019-05-12T04:29:05.269Z,10.13
2019-05-12T04:30:05.469Z,10.10
2019-05-12T04:31:05.500Z,9.95
2019-05-12T04:32:05.246Z,9.91
2019-05-12T04:33:04.908Z,9.89
2019-05-12T04:34:05.344Z,9.92
2019-05-12T04:35:04.880Z,9.86
2019-05-12T04:36:05.550Z,9.91
2019-05-12T04:37:04.643Z,9.87
2019-05-12T04:38:04.765Z,9.84
2019-05-12T04:39:04.400Z,9.94
2019-05-12T04:40:05.416Z,9.91
2019-05-12T04:41:05.853Z,9.89
2019-05-12T04:42:05.302Z,9.87
2019-05-12T04:43:05.934Z,9.87
2019-05-12T04:44:05.851Z,9.91
2019-05-12T04:45:04.649Z,9.97
2019-05-12T04:46:05.052Z,9.99
2019-05-12T04:47:05.613Z,10.01
2019-05-12T04:48:05.589Z,9.99
2019-05-12T04:49:05.229Z,9.95
2019-05-12T04:50:05.493Z,9.95
2019-05-12T04:51:04.990Z,9.98
2019-05-12T04:52:05.317Z,9.95
2019-05-12T04:53:05.967Z,9.98
2019-05-12T04:54:05.871Z,9.94
2019-05-12T04:55:04.897Z,9.95
2019-05-12T04:56:14.707Z,9.97
2019-05-12T04:57:04.286Z,9.95
2019-05-12T04:58:04.727Z,9.86
2019-05-12T04:59:04.931Z,9.87
2019-05-12T05:00:05.099Z,9.83
2019-05-12T05:01:06.344Z,9.84
2019-05-12T05:02:05.491Z,9.82
2019-05-12T05:03:05.113Z,9.69
2019-05-12T05:04:05.512Z,9.77
2019-05-12T05:05:05.334Z,9.87
2019-05-12T05:06:04.617Z,9.79
2019-05-12T05:07:04.555Z,9.83
2019-05-12T05:08:04.627Z,9.82
2019-05-12T05:09:05.104Z,9.77
2019-05-12T05:10:04.789Z,9.83
2019-05-12T05:11:04.235Z,9.82
2019-05-12T05:12:04.664Z,9.89
2019-05-12T05:13:05.072Z,9.83
2019-05-12T05:14:04.399Z,9.91
2019-05-12T05:15:05.462Z,9.83
2019-05-12T05:16:05.430Z,9.86
2019-05-12T05:17:05.578Z,9.86
2019-05-12T05:18:06.198Z,9.89
2019-05-12T05:19:03.953Z,9.92
2019-05-12T05:20:04.190Z,9.89
2019-05-12T05:21:04.714Z,9.97
2019-05-12T05:22:04.384Z,9.98
2019-05-12T05:23:04.173Z,9.99
2019-05-12T05:24:04.126Z,9.95
2019-05-12T05:25:04.319Z,10.02
2019-05-12T05:26:03.904Z,10.04
2019-05-12T05:27:04.440Z,10.13
2019-05-12T05:28:04.225Z,10.02
2019-05-12T05:29:04.386Z,10.25
2019-05-12T05:30:04.175Z,10.17
2019-05-12T05:31:03.867Z,10.25
2019-05-12T05:32:03.871Z,10.25
2019-05-12T05:33:04.902Z,10.22
2019-05-12T05:34:04.847Z,10.16
2019-05-12T05:35:07.188Z,10.20
2019-05-12T05:36:03.828Z,10.10
2019-05-12T05:37:05.217Z,10.05
2019-05-12T05:38:04.440Z,10.09
2019-05-12T05:39:04.313Z,10.04
2019-05-12T05:40:04.068Z,10.05
2019-05-12T05:41:06.072Z,10.12
2019-05-12T05:42:04.570Z,10.05
2019-05-12T05:43:12.389Z,10.02
2019-05-12T05:44:03.767Z,9.98
2019-05-12T05:45:04.854Z,9.98
2019-05-12T05:46:07.801Z,9.86
2019-05-12T05:47:04.404Z,9.91
2019-05-12T05:48:07.466Z,9.89
2019-05-12T05:49:04.305Z,9.92
2019-05-12T05:50:04.784Z,9.98
2019-05-12T05:51:05.673Z,9.99
2019-05-12T05:52:03.708Z,10.02
2019-05-12T05:53:04.199Z,10.05
2019-05-12T05:54:04.093Z,10.12
2019-05-12T05:55:05.798Z,10.09
2019-05-12T05:56:04.126Z,10.19
2019-05-12T05:57:06.103Z,10.22
2019-05-12T05:58:08.557Z,10.30
2019-05-12T05:59:04.533Z,10.30
2019-05-12T06:00:07.123Z,10.34
2019-05-12T06:01:07.783Z,10.49
2019-05-12T06:02:04.947Z,10.57
2019-05-12T06:03:05.454Z,10.54
2019-05-12T06:04:08.379Z,10.56
2019-05-12T06:05:04.413Z,10.63
2019-05-12T06:06:10.779Z,10.60
2019-05-12T06:07:04.134Z,10.48
2019-05-12T06:08:04.336Z,10.51
2019-05-12T06:09:03.755Z,10.51
2019-05-12T06:10:04.139Z,10.48
2019-05-12T06:11:04.488Z,10.38
2019-05-12T06:12:07.549Z,10.46
2019-05-12T06:13:04.210Z,10.49
2019-05-12T06:14:11.604Z,10.53
2019-05-12T06:15:04.163Z,10.49
2019-05-12T06:16:04.388Z,10.51
2019-05-12T06:17:04.285Z,10.41
2019-05-12T06:18:03.875Z,10.26
2019-05-12T06:19:03.650Z,10.19
2019-05-12T06:20:04.469Z,10.04
2019-05-12T06:21:03.650Z,10.05
2019-05-12T06:22:04.027Z,10.19
2019-05-12T06:23:04.278Z,10.23
2019-05-12T06:24:03.744Z,10.19
2019-05-12T06:25:04.886Z,10.23
2019-05-12T06:26:04.659Z,10.26
2019-05-12T06:27:14.328Z,10.31
2019-05-12T06:28:04.607Z,10.20
2019-05-12T06:29:04.507Z,10.13
2019-05-12T06:30:06.184Z,10.25
2019-05-12T06:31:04.288Z,10.15
2019-05-12T06:32:06.270Z,10.05
2019-05-12T06:33:04.233Z,10.02
2019-05-12T06:34:06.181Z,10.16
2019-05-12T06:35:04.558Z,10.19
2019-05-12T06:36:04.482Z,10.15
2019-05-12T06:37:11.974Z,10.12
2019-05-12T06:38:04.965Z,9.98
2019-05-12T06:39:04.355Z,10.13
2019-05-12T06:40:03.698Z,10.07
2019-05-12T06:41:03.671Z,10.09
2019-05-12T06:42:12.255Z,10.05
2019-05-12T06:43:04.383Z,10.07
2019-05-12T06:44:03.797Z,10.09
2019-05-12T06:45:03.868Z,10.10
2019-05-12T06:46:03.705Z,10.10
2019-05-12T06:47:08.045Z,10.15
2019-05-12T06:48:03.472Z,10.17
2019-05-12T06:49:10.199Z,10.28
2019-05-12T06:50:03.867Z,10.28
2019-05-12T06:51:03.999Z,10.30
2019-05-12T06:52:07.035Z,10.34
2019-05-12T06:53:04.984Z,10.35
2019-05-12T06:54:07.407Z,10.40
2019-05-12T06:55:04.066Z,10.51
2019-05-12T06:56:04.509Z,10.51
2019-05-12T06:57:18.644Z,10.60
2019-05-12T06:58:04.662Z,10.71
2019-05-12T06:59:09.870Z,10.76
2019-05-12T07:00:04.507Z,10.68
2019-05-12T07:01:10.120Z,10.76
2019-05-12T07:02:03.468Z,10.68
2019-05-12T07:03:03.972Z,10.76
2019-05-12T07:04:08.264Z,10.78
2019-05-12T07:05:04.331Z,10.76
2019-05-12T07:06:04.092Z,10.75
2019-05-12T07:07:03.625Z,10.69
2019-05-12T07:08:04.168Z,10.69
2019-05-12T07:09:09.164Z,10.82
2019-05-12T07:10:11.881Z,10.84
2019-05-12T07:11:05.902Z,10.76
2019-05-12T07:12:06.960Z,10.69
2019-05-12T07:13:05.673Z,10.74
2019-05-12T07:14:07.782Z,10.78
2019-05-12T07:15:03.754Z,10.87
2019-05-12T07:16:03.708Z,10.86
2019-05-12T07:17:05.860Z,10.92
2019-05-12T07:18:04.304Z,10.76
2019-05-12T07:19:09.630Z,10.68
2019-05-12T07:20:04.015Z,10.76
2019-05-12T07:21:04.134Z,10.86
2019-05-12T07:22:03.615Z,10.86
2019-05-12T07:23:03.982Z,10.82
2019-05-12T07:24:06.693Z,10.79
2019-05-12T07:25:04.492Z,10.87
2019-05-12T07:26:05.019Z,10.82
2019-05-12T07:27:08.990Z,10.84
2019-05-12T07:28:07.508Z,10.71
2019-05-12T07:29:04.452Z,10.69
2019-05-12T07:30:04.752Z,10.67
2019-05-12T07:31:03.904Z,10.72
2019-05-12T07:32:07.113Z,10.67
2019-05-12T07:33:04.428Z,10.75
2019-05-12T07:34:07.180Z,10.68
2019-05-12T07:35:03.895Z,10.82
2019-05-12T07:36:06.335Z,10.82
2019-05-12T07:37:04.403Z,10.89
2019-05-12T07:38:04.655Z,10.87
2019-05-12T07:39:04.300Z,10.97
2019-05-12T07:40:04.815Z,10.89
2019-05-12T07:41:08.872Z,11.04
2019-05-12T07:42:03.643Z,11.22
2019-05-12T07:43:03.993Z,11.22
2019-05-12T07:44:03.644Z,11.26
2019-05-12T07:45:03.995Z,11.30
2019-05-12T07:46:06.924Z,11.45
2019-05-12T07:47:03.572Z,11.48
2019-05-12T07:48:05.698Z,11.43
2019-05-12T07:49:03.913Z,11.55
2019-05-12T07:50:04.508Z,11.65
2019-05-12T07:51:04.201Z,11.66
2019-05-12T07:52:03.624Z,11.78
2019-05-12T07:53:04.154Z,11.81
2019-05-12T07:54:04.062Z,11.84
2019-05-12T07:55:04.329Z,11.91
2019-05-12T07:56:04.177Z,11.81
2019-05-12T07:57:11.456Z,11.91
2019-05-12T07:58:09.968Z,11.81
2019-05-12T07:59:04.368Z,11.73
2019-05-12T08:00:03.649Z,11.87
2019-05-12T08:01:07.197Z,11.80
2019-05-12T08:02:03.875Z,11.60
2019-05-12T08:03:06.298Z,11.54
2019-05-12T08:04:04.502Z,11.51
2019-05-12T08:05:03.801Z,11.41
2019-05-12T08:06:04.629Z,11.27
2019-05-12T08:07:03.888Z,11.29
2019-05-12T08:08:08.697Z,11.23
2019-05-12T08:09:04.156Z,11.26
2019-05-12T08:10:07.313Z,11.22
2019-05-12T08:11:04.408Z,11.15
2019-05-12T08:12:04.001Z,11.10
2019-05-12T08:13:04.353Z,11.02
2019-05-12T08:14:03.595Z,11.07
2019-05-12T08:15:05.412Z,11.08
2019-05-12T08:16:03.718Z,11.02
2019-05-12T08:17:11.176Z,10.96
2019-05-12T08:18:07.427Z,11.05
2019-05-12T08:19:03.985Z,11.10
2019-05-12T08:20:04.516Z,11.15
2019-05-12T08:21:03.819Z,11.22
2019-05-12T08:22:04.304Z,11.33
2019-05-12T08:23:05.762Z,11.41
2019-05-12T08:24:03.814Z,11.50
2019-05-12T08:25:04.199Z,11.44
2019-05-12T08:26:11.431Z,11.41
2019-05-12T08:27:06.245Z,11.43
2019-05-12T08:28:14.522Z,11.41
2019-05-12T08:29:04.210Z,11.48
2019-05-12T08:30:06.025Z,11.35
2019-05-12T08:31:03.596Z,11.37
2019-05-12T08:32:03.828Z,11.29
2019-05-12T08:33:09.213Z,11.32
2019-05-12T08:34:04.203Z,11.32
2019-05-12T08:35:04.877Z,11.35
2019-05-12T08:36:11.091Z,11.27
2019-05-12T08:37:04.381Z,11.35
2019-05-12T08:38:03.953Z,11.45
2019-05-12T08:39:05.901Z,11.48
2019-05-12T08:40:04.292Z,11.59
2019-05-12T08:41:04.268Z,11.63
2019-05-12T08:42:04.088Z,11.70
2019-05-12T08:43:07.985Z,12.02
2019-05-12T08:44:04.551Z,12.72
2019-05-12T08:45:04.103Z,13.75
2019-05-12T08:46:10.025Z,14.77
2019-05-12T08:47:03.932Z,15.40
2019-05-12T08:48:03.870Z,15.67
2019-05-12T08:49:05.259Z,16.38
2019-05-12T08:50:04.830Z,16.94
2019-05-12T08:51:05.344Z,17.36
2019-05-12T08:52:03.828Z,17.90
2019-05-12T08:53:04.636Z,18.23
2019-05-12T08:54:07.051Z,18.83
2019-05-12T08:55:04.297Z,19.48
2019-05-12T08:56:06.654Z,19.58
2019-05-12T08:57:03.891Z,19.15
2019-05-12T08:58:03.765Z,18.89
2019-05-12T08:59:04.345Z,18.49
2019-05-12T09:00:06.746Z,17.79
2019-05-12T09:01:04.447Z,17.59
2019-05-12T09:02:07.250Z,16.72
2019-05-12T09:03:03.582Z,15.94
2019-05-12T09:04:06.554Z,15.37
2019-05-12T09:05:04.634Z,15.75
2019-05-12T09:06:04.105Z,15.75
2019-05-12T09:07:04.410Z,16.13
2019-05-12T09:08:03.794Z,16.84
2019-05-12T09:09:03.464Z,17.39
2019-05-12T09:10:04.178Z,17.98
2019-05-12T09:11:03.520Z,18.25
2019-05-12T09:12:03.536Z,18.00
2019-05-12T09:13:03.996Z,17.54
2019-05-12T09:14:03.563Z,17.85
2019-05-12T09:15:04.456Z,18.37
2019-05-12T09:16:04.360Z,18.29
2019-05-12T09:17:07.188Z,18.71
2019-05-12T09:18:04.662Z,19.07
2019-05-12T09:19:04.677Z,19.63
2019-05-12T09:20:08.207Z,20.13
2019-05-12T09:21:03.727Z,20.60
2019-05-12T09:22:05.537Z,21.02
2019-05-12T09:23:04.731Z,21.27
2019-05-12T09:24:04.197Z,21.45
2019-05-12T09:25:06.126Z,21.46
2019-05-12T09:26:04.127Z,21.33
2019-05-12T09:27:07.002Z,21.62
2019-05-12T09:28:03.771Z,21.60
2019-05-12T09:29:03.478Z,21.50
2019-05-12T09:30:08.053Z,21.70
2019-05-12T09:31:03.683Z,21.27
2019-05-12T09:32:07.381Z,21.75
2019-05-12T09:33:04.077Z,21.62
2019-05-12T09:34:05.851Z,21.25
2019-05-12T09:35:04.010Z,21.51
2019-05-12T09:36:04.313Z,21.79
2019-05-12T09:37:04.033Z,21.75
2019-05-12T09:38:03.700Z,21.80
2019-05-12T09:39:03.838Z,21.98
2019-05-12T09:40:04.594Z,22.08
2019-05-12T09:41:03.328Z,22.28
2019-05-12T09:42:03.801Z,22.18
2019-05-12T09:43:06.357Z,22.33
2019-05-12T09:44:04.471Z,22.50
2019-05-12T09:45:06.137Z,22.63
2019-05-12T09:46:04.173Z,22.73
2019-05-12T09:47:04.069Z,22.41
2019-05-12T09:48:04.956Z,21.96
2019-05-12T09:49:04.129Z,21.57
2019-05-12T09:50:04.330Z,21.05
2019-05-12T09:51:05.067Z,20.44
2019-05-12T09:52:03.682Z,19.55
2019-05-12T09:53:09.269Z,19.16
2019-05-12T09:54:05.053Z,18.63
2019-05-12T09:55:04.230Z,18.26
2019-05-12T09:56:04.489Z,17.78
2019-05-12T09:57:04.371Z,17.22
2019-05-12T09:58:03.952Z,16.96
2019-05-12T09:59:16.671Z,16.89
2019-05-12T10:00:04.504Z,16.72
2019-05-12T10:01:03.592Z,16.69
2019-05-12T10:02:03.667Z,16.54
2019-05-12T10:03:04.806Z,16.38
2019-05-12T10:04:03.455Z,16.35
2019-05-12T10:05:03.941Z,16.21
2019-05-12T10:06:03.664Z,16.05
2019-05-12T10:07:03.829Z,16.16
2019-05-12T10:08:04.573Z,16.15
2019-05-12T10:09:03.436Z,16.16
2019-05-12T10:10:03.711Z,16.21
2019-05-12T10:11:03.731Z,16.31
2019-05-12T10:12:05.338Z,16.29
2019-05-12T10:13:04.652Z,16.32
2019-05-12T10:14:06.466Z,16.33
2019-05-12T10:15:04.303Z,16.42
2019-05-12T10:16:04.995Z,16.33
2019-05-12T10:17:03.578Z,16.24
2019-05-12T10:18:06.580Z,16.04
2019-05-12T10:19:04.018Z,15.95
2019-05-12T10:20:02.530Z,15.88
2019-05-12T10:21:02.490Z,15.88
2019-05-12T10:22:02.490Z,16.12
2019-05-12T10:23:04.398Z,16.93
2019-05-12T10:24:04.944Z,18.00
2019-05-12T10:25:04.032Z,18.98
2019-05-12T10:26:09.459Z,19.84
2019-05-12T10:27:03.849Z,20.39
2019-05-12T10:28:11.145Z,20.96
2019-05-12T10:29:14.138Z,21.45
2019-05-12T10:30:11.444Z,22.15
2019-05-12T10:31:04.174Z,22.80
2019-05-12T10:32:04.037Z,23.37
2019-05-12T10:33:03.696Z,23.91
2019-05-12T10:34:03.418Z,24.35
2019-05-12T10:35:02.493Z,24.61
2019-05-12T10:36:06.868Z,24.89
2019-05-12T10:37:04.171Z,24.45
2019-05-12T10:38:06.294Z,23.71
2019-05-12T10:39:04.263Z,23.24
2019-05-12T10:40:03.701Z,22.88
2019-05-12T10:41:04.250Z,22.96
2019-05-12T10:42:02.508Z,23.25
2019-05-12T10:43:04.420Z,23.66
2019-05-12T10:44:04.092Z,23.91
2019-05-12T10:45:04.271Z,24.10
2019-05-12T10:46:04.238Z,23.77
2019-05-12T10:47:04.479Z,23.31
2019-05-12T10:48:03.598Z,23.37
2019-05-12T10:49:03.971Z,22.96
2019-05-12T10:50:02.546Z,22.66
2019-05-12T10:51:02.554Z,22.30
2019-05-12T10:52:03.883Z,22.20
2019-05-12T10:53:04.516Z,22.10
2019-05-12T10:54:11.794Z,22.07
2019-05-12T10:55:04.438Z,21.48
2019-05-12T10:56:02.574Z,22.00
2019-05-12T10:57:04.946Z,22.33
2019-05-12T10:58:06.399Z,22.76
2019-05-12T10:59:04.268Z,23.27
2019-05-12T11:00:04.128Z,23.73
2019-05-12T11:01:05.232Z,24.36
2019-05-12T11:02:03.547Z,24.38
2019-05-12T11:03:10.218Z,24.55
2019-05-12T11:04:03.939Z,24.38
2019-05-12T11:05:02.633Z,24.54
2019-05-12T11:06:07.142Z,25.06
2019-05-12T11:07:04.677Z,25.51
2019-05-12T11:08:06.383Z,25.99
2019-05-12T11:09:03.791Z,25.10
2019-05-12T11:10:14.918Z,25.22
2019-05-12T11:11:04.219Z,25.44
2019-05-12T11:12:03.458Z,25.53
2019-05-12T11:13:08.712Z,25.68
2019-05-12T11:14:03.949Z,25.29
2019-05-12T11:15:06.638Z,25.16
2019-05-12T11:16:03.778Z,24.54
2019-05-12T11:17:07.915Z,24.86
2019-05-12T11:18:02.698Z,24.91
2019-05-12T11:19:06.352Z,25.03
2019-05-12T11:20:04.140Z,25.06
2019-05-12T11:21:03.588Z,24.48
2019-05-12T11:22:03.653Z,23.81
2019-05-12T11:23:03.567Z,23.06
2019-05-12T11:24:03.833Z,22.87
2019-05-12T11:25:04.362Z,22.66
2019-05-12T11:26:03.900Z,22.76
2019-05-12T11:27:04.125Z,23.23
2019-05-12T11:28:03.784Z,23.59
2019-05-12T11:29:03.791Z,24.23
2019-05-12T11:30:04.295Z,24.40
2019-05-12T11:31:02.766Z,24.45
2019-05-12T11:32:02.772Z,24.39
2019-05-12T11:33:04.350Z,23.84
2019-05-12T11:34:04.840Z,23.87
2019-05-12T11:35:04.115Z,24.26
2019-05-12T11:36:04.397Z,24.60
2019-05-12T11:37:03.450Z,24.84
2019-05-12T11:38:04.392Z,24.76
2019-05-12T11:39:03.674Z,24.58
2019-05-12T11:40:04.311Z,24.55
2019-05-12T11:41:04.249Z,24.99
2019-05-12T11:42:04.190Z,25.68
2019-05-12T11:43:04.042Z,25.96
2019-05-12T11:44:03.962Z,26.02
2019-05-12T11:45:02.852Z,25.95
2019-05-12T11:46:02.856Z,26.22
2019-05-12T11:47:03.661Z,26.03
2019-05-12T11:48:07.975Z,26.44
2019-05-12T11:49:04.377Z,26.53
2019-05-12T11:50:05.055Z,26.51
2019-05-12T11:51:03.950Z,25.85
2019-05-12T11:52:09.678Z,25.25
2019-05-12T11:53:04.258Z,24.63
2019-05-12T11:54:03.628Z,24.47
2019-05-12T11:55:02.919Z,24.54
2019-05-12T11:56:07.709Z,25.17
2019-05-12T11:57:02.933Z,25.14
2019-05-12T11:58:06.800Z,25.11
2019-05-12T11:59:02.947Z,25.38
2019-05-12T12:00:05.303Z,25.51
2019-05-12T12:01:04.697Z,25.73
2019-05-12T12:02:02.965Z,25.28
2019-05-12T12:03:12.083Z,23.84
2019-05-12T12:04:03.719Z,22.65
2019-05-12T12:05:02.987Z,22.18
2019-05-12T12:06:02.995Z,21.27
2019-05-12T12:07:03.001Z,21.03
2019-05-12T12:08:03.922Z,21.32
2019-05-12T12:09:03.937Z,21.61
2019-05-12T12:10:03.699Z,21.83
2019-05-12T12:11:03.931Z,21.58
2019-05-12T12:12:07.182Z,21.69
2019-05-12T12:13:03.772Z,21.50
2019-05-12T12:14:06.414Z,21.61
2019-05-12T12:15:04.678Z,21.42
2019-05-12T12:16:06.879Z,20.88
2019-05-12T12:17:03.045Z,20.47
2019-05-12T12:18:12.407Z,20.02
2019-05-12T12:19:05.756Z,19.91
2019-05-12T12:20:03.781Z,19.85
2019-05-12T12:21:07.646Z,19.41
2019-05-12T12:22:04.395Z,19.34
2019-05-12T12:23:06.536Z,19.15
2019-05-12T12:24:03.947Z,18.84
2019-05-12T12:25:10.924Z,18.66
2019-05-12T12:26:03.965Z,18.86
2019-05-12T12:27:03.877Z,18.98
2019-05-12T12:28:04.407Z,18.90
2019-05-12T12:29:03.428Z,19.00
2019-05-12T12:30:15.754Z,18.89
2019-05-12T12:31:07.575Z,18.74
2019-05-12T12:32:03.079Z,18.55
2019-05-12T12:33:03.996Z,18.29
2019-05-12T12:34:03.084Z,18.33
2019-05-12T12:35:07.415Z,18.26
2019-05-12T12:36:04.087Z,18.28
2019-05-12T12:37:03.335Z,18.37
2019-05-12T12:38:03.831Z,18.11
2019-05-12T12:39:04.183Z,18.03
2019-05-12T12:40:04.273Z,17.90
2019-05-12T12:41:03.880Z,17.90
2019-05-12T12:42:04.391Z,17.63
2019-05-12T12:43:04.004Z,17.63
2019-05-12T12:44:04.579Z,17.46
2019-05-12T12:45:04.287Z,17.42
2019-05-12T12:46:03.105Z,17.33
2019-05-12T12:47:03.085Z,17.27
2019-05-12T12:48:03.079Z,17.12
2019-05-12T12:49:06.443Z,17.20
2019-05-12T12:50:04.016Z,17.31
2019-05-12T12:51:03.919Z,17.29
2019-05-12T12:52:03.357Z,17.41
2019-05-12T12:53:03.081Z,17.22
2019-05-12T12:54:03.369Z,16.97
2019-05-12T12:55:05.366Z,16.69
2019-05-12T12:56:04.343Z,16.72
2019-05-12T12:57:06.570Z,16.47
2019-05-12T12:58:03.460Z,16.36
2019-05-12T12:59:10.233Z,16.31
2019-05-12T13:00:03.847Z,16.43
2019-05-12T13:01:03.680Z,16.46
2019-05-12T13:02:05.809Z,16.54